CheckWX is a tool to help pilots better visualize weather data.  It is not intended as a substitute for an official pre-flight weather briefing.

22:45:51 UTC

BGBW METAR
Narsarsuaq Airport
Narsarsuaq, Greenland
Current

56 mins ago

BGBW 262150Z 24013KT 9999 FEW010 SCT032 BKN053 M06/M10 Q0995
Observed
Mar-26 @ 21:50 UTC
Wind
  • 240° at 13 KTS
Visibility
10,000+ meters
Flight Rules
VFR
Cloud Levels
  • Few at 1,000' AGL
  • Scattered at 3,200' AGL
  • Broken at 5,300' AGL
Temperature
-6°C / 21°F
Dewpoint
-10°C / 14°F
Humidity
74%
Altimeter
29.38" Hg
Pressure
994.92 hPa
Previous

2 hours ago

BGBW 262050Z 24008KT 9999 FEW040 BKN064 BKN079 M06/M11 Q0994
Observed
Mar-26 @ 20:50 UTC
Wind
  • 240° at 8 KTS
Visibility
10,000+ meters
Flight Rules
VFR
Cloud Levels
  • Few at 4,000' AGL
  • Broken at 6,400' AGL
  • Broken at 7,900' AGL
Temperature
-6°C / 21°F
Dewpoint
-11°C / 12°F
Humidity
68%
Altimeter
29.35" Hg
Pressure
993.92 hPa
Previous

3 hours ago

BGBW 261950Z 24008KT 9999 FEW040 BKN060 BKN076 M05/M15 Q0994
Observed
Mar-26 @ 19:50 UTC
Wind
  • 240° at 8 KTS
Visibility
10,000+ meters
Flight Rules
VFR
Cloud Levels
  • Few at 4,000' AGL
  • Broken at 6,000' AGL
  • Broken at 7,600' AGL
Temperature
-5°C / 23°F
Dewpoint
-15°C / 5°F
Humidity
46%
Altimeter
29.35" Hg
Pressure
993.92 hPa